Saint-Pacome, Canada
Current Conditions -  °F | °C
As of 7:53 PM on Monday 22 Dec 2014 (Local Time) from KFVE Reporting Station
Overcast Overcast  
Wind Chill: -10°   Ceiling: 2600
Heat Index: -6°   Visibility: 10mi
Dew Point: -7°   Wind: 7mph
Humidity: 92%   Direction: 130°SE
Pressure: 30.36"   Gusts: NA
Location:  47.42°N, 69.95°W
Report Text: KFVE 230053Z AUTO 13006KT 10SM FEW005 OVC026 M06/M07 A3036 RMK AO2 SLP297 T10561067
Loading
Personal Weather Stations






























Interactive Weather Map New forecast layout! Learn more

10-Day Weather Forecast

Advertisements
Track Severe Weather on mobile